sensor_id;sensor_type;location;lat;lon;timestamp;P1;durP1;ratioP1;P2;durP2;ratioP2
17340;SDS011;8788;49.930;8.660;2024-02-04T00:02:15;1.95;;;1.77;;
17340;SDS011;8788;49.930;8.660;2024-02-04T00:04:43;2.53;;;1.35;;
17340;SDS011;8788;49.930;8.660;2024-02-04T00:07:10;1.63;;;1.52;;
17340;SDS011;8788;49.930;8.660;2024-02-04T00:09:37;2.53;;;1.70;;
17340;SDS011;8788;49.930;8.660;2024-02-04T00:12:04;1.45;;;1.35;;
17340;SDS011;8788;49.930;8.660;2024-02-04T00:14:32;1.63;;;1.52;;
17340;SDS011;8788;49.930;8.660;2024-02-04T00:16:59;1.60;;;1.50;;
17340;SDS011;8788;49.930;8.660;2024-02-04T00:19:26;1.80;;;1.70;;
17340;SDS011;8788;49.930;8.660;2024-02-04T00:21:54;1.80;;;1.70;;
17340;SDS011;8788;49.930;8.660;2024-02-04T00:24:21;1.42;;;1.33;;
17340;SDS011;8788;49.930;8.660;2024-02-04T00:26:49;1.75;;;1.60;;
17340;SDS011;8788;49.930;8.660;2024-02-04T00:29:16;3.72;;;1.38;;
17340;SDS011;8788;49.930;8.660;2024-02-04T00:31:43;3.85;;;1.70;;
17340;SDS011;8788;49.930;8.660;2024-02-04T00:34:10;1.80;;;1.70;;
17340;SDS011;8788;49.930;8.660;2024-02-04T00:36:37;3.80;;;1.50;;
17340;SDS011;8788;49.930;8.660;2024-02-04T00:39:05;1.40;;;1.33;;
17340;SDS011;8788;49.930;8.660;2024-02-04T00:41:32;1.63;;;1.52;;
17340;SDS011;8788;49.930;8.660;2024-02-04T00:44:00;2.50;;;1.88;;
17340;SDS011;8788;49.930;8.660;2024-02-04T00:46:27;1.67;;;1.40;;
17340;SDS011;8788;49.930;8.660;2024-02-04T00:48:54;1.50;;;1.40;;
17340;SDS011;8788;49.930;8.660;2024-02-04T00:51:21;1.48;;;1.38;;
17340;SDS011;8788;49.930;8.660;2024-02-04T00:53:48;2.08;;;1.63;;
17340;SDS011;8788;49.930;8.660;2024-02-04T00:56:17;1.50;;;1.40;;
17340;SDS011;8788;49.930;8.660;2024-02-04T00:58:44;1.42;;;1.33;;
17340;SDS011;8788;49.930;8.660;2024-02-04T01:01:11;2.55;;;1.45;;
17340;SDS011;8788;49.930;8.660;2024-02-04T01:03:38;1.55;;;1.45;;
17340;SDS011;8788;49.930;8.660;2024-02-04T01:06:05;1.63;;;1.42;;
17340;SDS011;8788;49.930;8.660;2024-02-04T01:08:33;1.55;;;0.98;;
17340;SDS011;8788;49.930;8.660;2024-02-04T01:11:03;1.63;;;1.50;;
17340;SDS011;8788;49.930;8.660;2024-02-04T01:13:32;1.60;;;1.50;;
17340;SDS011;8788;49.930;8.660;2024-02-04T01:15:59;1.30;;;1.20;;
17340;SDS011;8788;49.930;8.660;2024-02-04T01:18:26;1.20;;;1.20;;
17340;SDS011;8788;49.930;8.660;2024-02-04T01:20:53;1.02;;;0.98;;
17340;SDS011;8788;49.930;8.660;2024-02-04T01:23:20;1.27;;;1.10;;
17340;SDS011;8788;49.930;8.660;2024-02-04T01:25:48;1.00;;;1.00;;
17340;SDS011;8788;49.930;8.660;2024-02-04T01:28:15;0.90;;;0.90;;
17340;SDS011;8788;49.930;8.660;2024-02-04T01:30:43;1.00;;;1.00;;
17340;SDS011;8788;49.930;8.660;2024-02-04T01:33:10;1.25;;;1.17;;
17340;SDS011;8788;49.930;8.660;2024-02-04T01:35:37;0.90;;;0.90;;
17340;SDS011;8788;49.930;8.660;2024-02-04T01:38:04;1.27;;;0.95;;
17340;SDS011;8788;49.930;8.660;2024-02-04T01:40:31;0.80;;;0.80;;
17340;SDS011;8788;49.930;8.660;2024-02-04T01:42:58;1.25;;;1.00;;
17340;SDS011;8788;49.930;8.660;2024-02-04T01:45:25;1.52;;;0.90;;
17340;SDS011;8788;49.930;8.660;2024-02-04T01:47:54;0.68;;;0.68;;
17340;SDS011;8788;49.930;8.660;2024-02-04T01:50:21;0.70;;;0.70;;
17340;SDS011;8788;49.930;8.660;2024-02-04T01:52:49;1.65;;;0.90;;
17340;SDS011;8788;49.930;8.660;2024-02-04T01:55:19;0.90;;;0.90;;
17340;SDS011;8788;49.930;8.660;2024-02-04T01:57:47;1.25;;;0.80;;
17340;SDS011;8788;49.930;8.660;2024-02-04T02:00:14;2.45;;;1.00;;
17340;SDS011;8788;49.930;8.660;2024-02-04T02:02:43;1.27;;;1.17;;
17340;SDS011;8788;49.930;8.660;2024-02-04T02:05:14;1.10;;;1.10;;
17340;SDS011;8788;49.930;8.660;2024-02-04T02:07:41;1.77;;;1.17;;
17340;SDS011;8788;49.930;8.660;2024-02-04T02:10:11;1.50;;;1.40;;
17340;SDS011;8788;49.930;8.660;2024-02-04T02:12:39;2.05;;;1.45;;
17340;SDS011;8788;49.930;8.660;2024-02-04T02:15:14;1.73;;;1.63;;
17340;SDS011;8788;49.930;8.660;2024-02-04T02:17:45;1.50;;;1.40;;
17340;SDS011;8788;49.930;8.660;2024-02-04T02:20:21;1.70;;;1.60;;
17340;SDS011;8788;49.930;8.660;2024-02-04T02:22:57;1.80;;;1.70;;
17340;SDS011;8788;49.930;8.660;2024-02-04T02:25:30;2.10;;;1.55;;
17340;SDS011;8788;49.930;8.660;2024-02-04T02:27:58;1.50;;;1.40;;
17340;SDS011;8788;49.930;8.660;2024-02-04T02:30:25;1.58;;;1.48;;
17340;SDS011;8788;49.930;8.660;2024-02-04T02:32:52;1.90;;;1.73;;
17340;SDS011;8788;49.930;8.660;2024-02-04T02:35:20;2.10;;;1.88;;
17340;SDS011;8788;49.930;8.660;2024-02-04T02:37:51;1.50;;;1.40;;
17340;SDS011;8788;49.930;8.660;2024-02-04T02:40:23;2.78;;;1.70;;
17340;SDS011;8788;49.930;8.660;2024-02-04T02:42:55;1.50;;;1.40;;
17340;SDS011;8788;49.930;8.660;2024-02-04T02:45:28;1.60;;;1.50;;
17340;SDS011;8788;49.930;8.660;2024-02-04T02:47:55;1.73;;;1.63;;
17340;SDS011;8788;49.930;8.660;2024-02-04T02:50:22;1.75;;;1.50;;
17340;SDS011;8788;49.930;8.660;2024-02-04T02:52:50;1.50;;;1.40;;
17340;SDS011;8788;49.930;8.660;2024-02-04T02:55:17;1.92;;;1.83;;
17340;SDS011;8788;49.930;8.660;2024-02-04T02:57:44;2.53;;;2.17;;
17340;SDS011;8788;49.930;8.660;2024-02-04T03:00:13;2.38;;;1.52;;
17340;SDS011;8788;49.930;8.660;2024-02-04T03:02:41;1.83;;;1.73;;
17340;SDS011;8788;49.930;8.660;2024-02-04T03:05:08;1.42;;;1.33;;
17340;SDS011;8788;49.930;8.660;2024-02-04T03:07:37;2.08;;;1.67;;
17340;SDS011;8788;49.930;8.660;2024-02-04T03:10:04;1.80;;;1.70;;
17340;SDS011;8788;49.930;8.660;2024-02-04T03:12:32;1.83;;;1.60;;
17340;SDS011;8788;49.930;8.660;2024-02-04T03:14:59;1.50;;;1.40;;
17340;SDS011;8788;49.930;8.660;2024-02-04T03:17:27;2.65;;;1.55;;
17340;SDS011;8788;49.930;8.660;2024-02-04T03:19:54;2.95;;;1.40;;
17340;SDS011;8788;49.930;8.660;2024-02-04T03:22:22;2.38;;;1.60;;
17340;SDS011;8788;49.930;8.660;2024-02-04T03:24:49;1.98;;;1.55;;
17340;SDS011;8788;49.930;8.660;2024-02-04T03:27:17;3.05;;;1.90;;
17340;SDS011;8788;49.930;8.660;2024-02-04T03:29:45;2.28;;;1.73;;
17340;SDS011;8788;49.930;8.660;2024-02-04T03:32:12;1.73;;;1.63;;
17340;SDS011;8788;49.930;8.660;2024-02-04T03:34:42;1.90;;;1.80;;
17340;SDS011;8788;49.930;8.660;2024-02-04T03:37:09;1.88;;;1.70;;
17340;SDS011;8788;49.930;8.660;2024-02-04T03:39:37;1.50;;;1.40;;
17340;SDS011;8788;49.930;8.660;2024-02-04T03:42:04;1.90;;;1.80;;
17340;SDS011;8788;49.930;8.660;2024-02-04T03:44:31;2.55;;;1.58;;
17340;SDS011;8788;49.930;8.660;2024-02-04T03:46:58;1.48;;;1.38;;
17340;SDS011;8788;49.930;8.660;2024-02-04T03:49:28;1.40;;;1.30;;
17340;SDS011;8788;49.930;8.660;2024-02-04T03:51:56;2.42;;;1.80;;
17340;SDS011;8788;49.930;8.660;2024-02-04T03:54:23;3.03;;;1.63;;
17340;SDS011;8788;49.930;8.660;2024-02-04T03:56:51;1.33;;;1.23;;
17340;SDS011;8788;49.930;8.660;2024-02-04T03:59:18;1.40;;;1.30;;
17340;SDS011;8788;49.930;8.660;2024-02-04T04:01:46;1.38;;;1.27;;
17340;SDS011;8788;49.930;8.660;2024-02-04T04:04:14;1.30;;;1.20;;
17340;SDS011;8788;49.930;8.660;2024-02-04T04:06:42;1.35;;;1.25;;
17340;SDS011;8788;49.930;8.660;2024-02-04T04:09:11;1.27;;;1.17;;
17340;SDS011;8788;49.930;8.660;2024-02-04T04:11:38;1.13;;;0.98;;
17340;SDS011;8788;49.930;8.660;2024-02-04T04:14:05;3.92;;;1.70;;
17340;SDS011;8788;49.930;8.660;2024-02-04T04:16:32;1.40;;;1.30;;
17340;SDS011;8788;49.930;8.660;2024-02-04T04:18:59;1.48;;;1.38;;
17340;SDS011;8788;49.930;8.660;2024-02-04T04:21:26;1.20;;;1.10;;
17340;SDS011;8788;49.930;8.660;2024-02-04T04:23:53;1.30;;;1.20;;
17340;SDS011;8788;49.930;8.660;2024-02-04T04:26:21;1.05;;;0.98;;
17340;SDS011;8788;49.930;8.660;2024-02-04T04:28:49;5.30;;;1.52;;
17340;SDS011;8788;49.930;8.660;2024-02-04T04:31:16;1.15;;;1.02;;
17340;SDS011;8788;49.930;8.660;2024-02-04T04:33:43;3.10;;;1.05;;
17340;SDS011;8788;49.930;8.660;2024-02-04T04:36:10;1.30;;;1.20;;
17340;SDS011;8788;49.930;8.660;2024-02-04T04:38:37;1.10;;;1.00;;
17340;SDS011;8788;49.930;8.660;2024-02-04T04:41:04;1.70;;;1.33;;
17340;SDS011;8788;49.930;8.660;2024-02-04T04:43:33;1.08;;;1.08;;
17340;SDS011;8788;49.930;8.660;2024-02-04T04:46:03;1.27;;;1.17;;
17340;SDS011;8788;49.930;8.660;2024-02-04T04:48:30;1.75;;;1.20;;
17340;SDS011;8788;49.930;8.660;2024-02-04T04:50:57;1.15;;;1.05;;
17340;SDS011;8788;49.930;8.660;2024-02-04T04:53:24;1.35;;;1.25;;
17340;SDS011;8788;49.930;8.660;2024-02-04T04:55:51;1.13;;;1.02;;
17340;SDS011;8788;49.930;8.660;2024-02-04T04:58:18;1.02;;;1.00;;
17340;SDS011;8788;49.930;8.660;2024-02-04T05:00:47;1.00;;;1.00;;
17340;SDS011;8788;49.930;8.660;2024-02-04T05:03:14;2.25;;;0.98;;
17340;SDS011;8788;49.930;8.660;2024-02-04T05:05:41;1.17;;;1.08;;
17340;SDS011;8788;49.930;8.660;2024-02-04T05:08:08;1.20;;;1.10;;
17340;SDS011;8788;49.930;8.660;2024-02-04T05:10:35;1.17;;;1.00;;
17340;SDS011;8788;49.930;8.660;2024-02-04T05:13:02;1.25;;;1.10;;
17340;SDS011;8788;49.930;8.660;2024-02-04T05:15:29;1.50;;;1.40;;
17340;SDS011;8788;49.930;8.660;2024-02-04T05:17:58;1.02;;;1.02;;
17340;SDS011;8788;49.930;8.660;2024-02-04T05:20:25;1.60;;;1.30;;
17340;SDS011;8788;49.930;8.660;2024-02-04T05:22:54;1.27;;;1.17;;
17340;SDS011;8788;49.930;8.660;2024-02-04T05:25:22;1.10;;;1.00;;
17340;SDS011;8788;49.930;8.660;2024-02-04T05:27:50;1.15;;;1.13;;
17340;SDS011;8788;49.930;8.660;2024-02-04T05:30:18;1.13;;;1.02;;
17340;SDS011;8788;49.930;8.660;2024-02-04T05:32:45;2.05;;;1.00;;
17340;SDS011;8788;49.930;8.660;2024-02-04T05:35:13;0.98;;;0.98;;
17340;SDS011;8788;49.930;8.660;2024-02-04T05:37:40;0.90;;;0.90;;
17340;SDS011;8788;49.930;8.660;2024-02-04T05:40:07;0.80;;;0.80;;
17340;SDS011;8788;49.930;8.660;2024-02-04T05:42:35;0.90;;;0.90;;
17340;SDS011;8788;49.930;8.660;2024-02-04T05:45:02;0.70;;;0.70;;
17340;SDS011;8788;49.930;8.660;2024-02-04T05:47:30;0.73;;;0.73;;
17340;SDS011;8788;49.930;8.660;2024-02-04T05:49:58;0.85;;;0.77;;
17340;SDS011;8788;49.930;8.660;2024-02-04T05:52:26;3.13;;;0.98;;
17340;SDS011;8788;49.930;8.660;2024-02-04T05:54:53;0.60;;;0.60;;
17340;SDS011;8788;49.930;8.660;2024-02-04T05:57:20;0.60;;;0.60;;
17340;SDS011;8788;49.930;8.660;2024-02-04T05:59:47;0.60;;;0.60;;
17340;SDS011;8788;49.930;8.660;2024-02-04T06:02:18;0.65;;;0.65;;
17340;SDS011;8788;49.930;8.660;2024-02-04T06:04:45;0.90;;;0.90;;
17340;SDS011;8788;49.930;8.660;2024-02-04T06:07:13;1.70;;;0.70;;
17340;SDS011;8788;49.930;8.660;2024-02-04T06:09:42;0.98;;;0.55;;
17340;SDS011;8788;49.930;8.660;2024-02-04T06:12:09;1.42;;;0.50;;
17340;SDS011;8788;49.930;8.660;2024-02-04T06:14:36;1.50;;;0.60;;
17340;SDS011;8788;49.930;8.660;2024-02-04T06:17:05;0.70;;;0.52;;
17340;SDS011;8788;49.930;8.660;2024-02-04T06:19:33;0.65;;;0.63;;
17340;SDS011;8788;49.930;8.660;2024-02-04T06:22:00;0.70;;;0.70;;
17340;SDS011;8788;49.930;8.660;2024-02-04T06:24:28;2.33;;;0.70;;
17340;SDS011;8788;49.930;8.660;2024-02-04T06:26:56;0.77;;;0.77;;
17340;SDS011;8788;49.930;8.660;2024-02-04T06:29:23;2.05;;;0.90;;
17340;SDS011;8788;49.930;8.660;2024-02-04T06:31:50;1.30;;;0.65;;
17340;SDS011;8788;49.930;8.660;2024-02-04T06:34:17;1.38;;;0.80;;
17340;SDS011;8788;49.930;8.660;2024-02-04T06:36:44;0.70;;;0.70;;
17340;SDS011;8788;49.930;8.660;2024-02-04T06:39:11;0.82;;;0.68;;
17340;SDS011;8788;49.930;8.660;2024-02-04T06:41:38;0.50;;;0.50;;
17340;SDS011;8788;49.930;8.660;2024-02-04T06:44:07;0.40;;;0.40;;
17340;SDS011;8788;49.930;8.660;2024-02-04T06:46:34;0.68;;;0.68;;
17340;SDS011;8788;49.930;8.660;2024-02-04T06:49:01;0.50;;;0.50;;
17340;SDS011;8788;49.930;8.660;2024-02-04T06:51:28;0.50;;;0.50;;
17340;SDS011;8788;49.930;8.660;2024-02-04T06:53:55;0.70;;;0.70;;
17340;SDS011;8788;49.930;8.660;2024-02-04T06:56:22;0.52;;;0.52;;
17340;SDS011;8788;49.930;8.660;2024-02-04T06:58:49;0.75;;;0.47;;
17340;SDS011;8788;49.930;8.660;2024-02-04T07:01:18;0.60;;;0.47;;
17340;SDS011;8788;49.930;8.660;2024-02-04T07:03:45;0.50;;;0.50;;
17340;SDS011;8788;49.930;8.660;2024-02-04T07:06:12;0.40;;;0.40;;
17340;SDS011;8788;49.930;8.660;2024-02-04T07:08:39;0.45;;;0.45;;
17340;SDS011;8788;49.930;8.660;2024-02-04T07:11:06;0.35;;;0.35;;
17340;SDS011;8788;49.930;8.660;2024-02-04T07:13:33;0.43;;;0.43;;
17340;SDS011;8788;49.930;8.660;2024-02-04T07:16:00;0.77;;;0.50;;
17340;SDS011;8788;49.930;8.660;2024-02-04T07:18:28;0.35;;;0.35;;
17340;SDS011;8788;49.930;8.660;2024-02-04T07:20:56;0.60;;;0.60;;
17340;SDS011;8788;49.930;8.660;2024-02-04T07:23:23;0.88;;;0.60;;
17340;SDS011;8788;49.930;8.660;2024-02-04T07:25:50;0.32;;;0.32;;
17340;SDS011;8788;49.930;8.660;2024-02-04T07:28:17;0.47;;;0.47;;
17340;SDS011;8788;49.930;8.660;2024-02-04T07:30:44;1.25;;;0.35;;
17340;SDS011;8788;49.930;8.660;2024-02-04T07:33:11;0.30;;;0.30;;
17340;SDS011;8788;49.930;8.660;2024-02-04T07:35:40;0.85;;;0.40;;
17340;SDS011;8788;49.930;8.660;2024-02-04T07:38:07;0.38;;;0.30;;
17340;SDS011;8788;49.930;8.660;2024-02-04T07:40:34;0.25;;;0.20;;
17340;SDS011;8788;49.930;8.660;2024-02-04T07:43:01;0.20;;;0.20;;
17340;SDS011;8788;49.930;8.660;2024-02-04T07:45:28;0.63;;;0.63;;
17340;SDS011;8788;49.930;8.660;2024-02-04T07:47:55;1.27;;;0.40;;
17340;SDS011;8788;49.930;8.660;2024-02-04T07:50:22;0.40;;;0.35;;
17340;SDS011;8788;49.930;8.660;2024-02-04T07:52:51;0.63;;;0.52;;
17340;SDS011;8788;49.930;8.660;2024-02-04T07:55:18;0.30;;;0.20;;
17340;SDS011;8788;49.930;8.660;2024-02-04T07:57:45;1.00;;;0.17;;
17340;SDS011;8788;49.930;8.660;2024-02-04T08:00:12;0.85;;;0.20;;
17340;SDS011;8788;49.930;8.660;2024-02-04T08:02:40;0.20;;;0.20;;
17340;SDS011;8788;49.930;8.660;2024-02-04T08:05:07;0.88;;;0.30;;
17340;SDS011;8788;49.930;8.660;2024-02-04T08:07:34;1.33;;;0.22;;
17340;SDS011;8788;49.930;8.660;2024-02-04T08:10:03;0.45;;;0.30;;
17340;SDS011;8788;49.930;8.660;2024-02-04T08:12:31;0.40;;;0.30;;
17340;SDS011;8788;49.930;8.660;2024-02-04T08:14:58;0.30;;;0.22;;
17340;SDS011;8788;49.930;8.660;2024-02-04T08:17:25;0.20;;;0.20;;
17340;SDS011;8788;49.930;8.660;2024-02-04T08:19:54;0.30;;;0.30;;
17340;SDS011;8788;49.930;8.660;2024-02-04T08:22:21;0.43;;;0.20;;
17340;SDS011;8788;49.930;8.660;2024-02-04T08:24:48;0.30;;;0.30;;
17340;SDS011;8788;49.930;8.660;2024-02-04T08:27:16;0.20;;;0.20;;
17340;SDS011;8788;49.930;8.660;2024-02-04T08:29:44;0.73;;;0.30;;
17340;SDS011;8788;49.930;8.660;2024-02-04T08:32:11;0.20;;;0.20;;
17340;SDS011;8788;49.930;8.660;2024-02-04T08:34:39;0.20;;;0.20;;
17340;SDS011;8788;49.930;8.660;2024-02-04T08:37:06;0.30;;;0.25;;
17340;SDS011;8788;49.930;8.660;2024-02-04T08:39:33;0.38;;;0.30;;
17340;SDS011;8788;49.930;8.660;2024-02-04T08:42:00;0.10;;;0.10;;
17340;SDS011;8788;49.930;8.660;2024-02-04T08:44:28;0.20;;;0.20;;
17340;SDS011;8788;49.930;8.660;2024-02-04T08:46:55;0.85;;;0.20;;
17340;SDS011;8788;49.930;8.660;2024-02-04T08:49:23;0.30;;;0.17;;
17340;SDS011;8788;49.930;8.660;2024-02-04T08:51:50;0.10;;;0.10;;
17340;SDS011;8788;49.930;8.660;2024-02-04T08:54:17;0.60;;;0.30;;
17340;SDS011;8788;49.930;8.660;2024-02-04T08:56:45;0.20;;;0.20;;
17340;SDS011;8788;49.930;8.660;2024-02-04T08:59:12;0.20;;;0.10;;
17340;SDS011;8788;49.930;8.660;2024-02-04T09:01:43;0.52;;;0.52;;
17340;SDS011;8788;49.930;8.660;2024-02-04T09:04:10;0.10;;;0.10;;
17340;SDS011;8788;49.930;8.660;2024-02-04T09:06:37;0.45;;;0.25;;
17340;SDS011;8788;49.930;8.660;2024-02-04T09:09:04;0.63;;;0.20;;
17340;SDS011;8788;49.930;8.660;2024-02-04T09:11:33;0.20;;;0.20;;
17340;SDS011;8788;49.930;8.660;2024-02-04T09:14:00;0.40;;;0.25;;
17340;SDS011;8788;49.930;8.660;2024-02-04T09:16:29;0.38;;;0.30;;
17340;SDS011;8788;49.930;8.660;2024-02-04T09:18:57;0.10;;;0.10;;
17340;SDS011;8788;49.930;8.660;2024-02-04T09:21:24;0.75;;;0.30;;
17340;SDS011;8788;49.930;8.660;2024-02-04T09:23:51;0.20;;;0.20;;
17340;SDS011;8788;49.930;8.660;2024-02-04T09:26:19;0.85;;;0.20;;
17340;SDS011;8788;49.930;8.660;2024-02-04T09:28:46;0.20;;;0.20;;
17340;SDS011;8788;49.930;8.660;2024-02-04T09:31:13;0.15;;;0.15;;
17340;SDS011;8788;49.930;8.660;2024-02-04T09:33:40;0.25;;;0.25;;
17340;SDS011;8788;49.930;8.660;2024-02-04T09:36:08;0.30;;;0.30;;
17340;SDS011;8788;49.930;8.660;2024-02-04T09:38:35;0.10;;;0.10;;
17340;SDS011;8788;49.930;8.660;2024-02-04T09:41:03;0.45;;;0.22;;
17340;SDS011;8788;49.930;8.660;2024-02-04T09:43:30;0.93;;;0.30;;
17340;SDS011;8788;49.930;8.660;2024-02-04T09:45:58;0.20;;;0.20;;
17340;SDS011;8788;49.930;8.660;2024-02-04T09:48:26;0.95;;;0.45;;
17340;SDS011;8788;49.930;8.660;2024-02-04T09:50:58;0.20;;;0.20;;
17340;SDS011;8788;49.930;8.660;2024-02-04T09:53:31;0.52;;;0.28;;
17340;SDS011;8788;49.930;8.660;2024-02-04T09:55:59;5.85;;;0.90;;
17340;SDS011;8788;49.930;8.660;2024-02-04T09:58:28;0.20;;;0.20;;
17340;SDS011;8788;49.930;8.660;2024-02-04T10:00:56;0.22;;;0.22;;
17340;SDS011;8788;49.930;8.660;2024-02-04T10:03:25;0.45;;;0.45;;
17340;SDS011;8788;49.930;8.660;2024-02-04T10:05:53;0.20;;;0.20;;
17340;SDS011;8788;49.930;8.660;2024-02-04T10:08:20;0.30;;;0.30;;
17340;SDS011;8788;49.930;8.660;2024-02-04T10:10:49;0.20;;;0.20;;
17340;SDS011;8788;49.930;8.660;2024-02-04T10:13:16;0.20;;;0.20;;
17340;SDS011;8788;49.930;8.660;2024-02-04T10:15:43;0.47;;;0.47;;
17340;SDS011;8788;49.930;8.660;2024-02-04T10:18:10;0.38;;;0.30;;
17340;SDS011;8788;49.930;8.660;2024-02-04T10:20:37;0.32;;;0.32;;
17340;SDS011;8788;49.930;8.660;2024-02-04T10:23:04;0.60;;;0.60;;
17340;SDS011;8788;49.930;8.660;2024-02-04T10:25:31;0.32;;;0.30;;
17340;SDS011;8788;49.930;8.660;2024-02-04T10:27:59;1.25;;;0.30;;
17340;SDS011;8788;49.930;8.660;2024-02-04T10:30:27;0.35;;;0.35;;
17340;SDS011;8788;49.930;8.660;2024-02-04T10:32:54;0.30;;;0.30;;
17340;SDS011;8788;49.930;8.660;2024-02-04T10:35:22;0.30;;;0.30;;
17340;SDS011;8788;49.930;8.660;2024-02-04T10:37:49;0.40;;;0.40;;
17340;SDS011;8788;49.930;8.660;2024-02-04T10:40:17;0.55;;;0.43;;
17340;SDS011;8788;49.930;8.660;2024-02-04T10:42:44;0.25;;;0.25;;
17340;SDS011;8788;49.930;8.660;2024-02-04T10:45:13;0.77;;;0.30;;
17340;SDS011;8788;49.930;8.660;2024-02-04T10:47:44;0.30;;;0.30;;
17340;SDS011;8788;49.930;8.660;2024-02-04T10:50:19;0.20;;;0.20;;
17340;SDS011;8788;49.930;8.660;2024-02-04T10:52:46;0.25;;;0.25;;
17340;SDS011;8788;49.930;8.660;2024-02-04T10:55:15;1.48;;;0.40;;
17340;SDS011;8788;49.930;8.660;2024-02-04T10:57:48;0.47;;;0.47;;
17340;SDS011;8788;49.930;8.660;2024-02-04T11:00:17;0.40;;;0.40;;
17340;SDS011;8788;49.930;8.660;2024-02-04T11:02:46;0.57;;;0.35;;
17340;SDS011;8788;49.930;8.660;2024-02-04T11:05:14;0.20;;;0.20;;
17340;SDS011;8788;49.930;8.660;2024-02-04T11:07:43;0.30;;;0.30;;
17340;SDS011;8788;49.930;8.660;2024-02-04T11:10:11;0.28;;;0.28;;
17340;SDS011;8788;49.930;8.660;2024-02-04T11:12:39;0.32;;;0.32;;
17340;SDS011;8788;49.930;8.660;2024-02-04T11:15:09;0.80;;;0.50;;
17340;SDS011;8788;49.930;8.660;2024-02-04T11:17:46;0.25;;;0.25;;
17340;SDS011;8788;49.930;8.660;2024-02-04T11:20:45;0.47;;;0.40;;
17340;SDS011;8788;49.930;8.660;2024-02-04T11:23:39;0.52;;;0.40;;
17340;SDS011;8788;49.930;8.660;2024-02-04T11:26:15;0.40;;;0.30;;
17340;SDS011;8788;49.930;8.660;2024-02-04T11:28:42;0.40;;;0.40;;
17340;SDS011;8788;49.930;8.660;2024-02-04T11:31:13;0.93;;;0.40;;
17340;SDS011;8788;49.930;8.660;2024-02-04T11:33:43;1.35;;;0.50;;
17340;SDS011;8788;49.930;8.660;2024-02-04T11:36:12;0.40;;;0.40;;
17340;SDS011;8788;49.930;8.660;2024-02-04T11:38:40;0.63;;;0.45;;
17340;SDS011;8788;49.930;8.660;2024-02-04T11:41:07;0.30;;;0.30;;
17340;SDS011;8788;49.930;8.660;2024-02-04T11:43:34;0.45;;;0.38;;
17340;SDS011;8788;49.930;8.660;2024-02-04T11:46:03;0.40;;;0.40;;
17340;SDS011;8788;49.930;8.660;2024-02-04T11:48:32;0.35;;;0.30;;
17340;SDS011;8788;49.930;8.660;2024-02-04T11:51:01;0.43;;;0.40;;
17340;SDS011;8788;49.930;8.660;2024-02-04T11:53:31;0.60;;;0.40;;
17340;SDS011;8788;49.930;8.660;2024-02-04T11:55:58;1.38;;;0.43;;
17340;SDS011;8788;49.930;8.660;2024-02-04T11:58:28;0.30;;;0.30;;
17340;SDS011;8788;49.930;8.660;2024-02-04T12:00:56;0.32;;;0.32;;
17340;SDS011;8788;49.930;8.660;2024-02-04T12:03:30;1.00;;;0.47;;
17340;SDS011;8788;49.930;8.660;2024-02-04T12:05:58;1.52;;;0.45;;
17340;SDS011;8788;49.930;8.660;2024-02-04T12:08:28;0.75;;;0.35;;
17340;SDS011;8788;49.930;8.660;2024-02-04T12:10:56;0.82;;;0.68;;
17340;SDS011;8788;49.930;8.660;2024-02-04T12:13:23;0.30;;;0.25;;
17340;SDS011;8788;49.930;8.660;2024-02-04T12:15:51;0.50;;;0.50;;
17340;SDS011;8788;49.930;8.660;2024-02-04T12:18:18;0.35;;;0.30;;
17340;SDS011;8788;49.930;8.660;2024-02-04T12:20:46;1.17;;;0.50;;
17340;SDS011;8788;49.930;8.660;2024-02-04T12:23:14;0.32;;;0.32;;
17340;SDS011;8788;49.930;8.660;2024-02-04T12:25:44;0.60;;;0.60;;
17340;SDS011;8788;49.930;8.660;2024-02-04T12:28:11;0.80;;;0.50;;
17340;SDS011;8788;49.930;8.660;2024-02-04T12:30:40;1.40;;;0.50;;
17340;SDS011;8788;49.930;8.660;2024-02-04T12:33:18;0.70;;;0.50;;
17340;SDS011;8788;49.930;8.660;2024-02-04T12:35:48;1.50;;;0.70;;
17340;SDS011;8788;49.930;8.660;2024-02-04T12:38:16;0.47;;;0.47;;
17340;SDS011;8788;49.930;8.660;2024-02-04T12:40:45;0.65;;;0.43;;
17340;SDS011;8788;49.930;8.660;2024-02-04T12:43:12;0.50;;;0.50;;
17340;SDS011;8788;49.930;8.660;2024-02-04T12:45:39;0.80;;;0.65;;
17340;SDS011;8788;49.930;8.660;2024-02-04T12:48:06;0.40;;;0.40;;
17340;SDS011;8788;49.930;8.660;2024-02-04T12:50:36;1.52;;;0.93;;
17340;SDS011;8788;49.930;8.660;2024-02-04T12:53:04;0.68;;;0.68;;
17340;SDS011;8788;49.930;8.660;2024-02-04T12:55:32;0.50;;;0.50;;
17340;SDS011;8788;49.930;8.660;2024-02-04T12:58:05;2.50;;;0.50;;
17340;SDS011;8788;49.930;8.660;2024-02-04T13:00:33;0.70;;;0.68;;
17340;SDS011;8788;49.930;8.660;2024-02-04T13:03:02;0.68;;;0.60;;
17340;SDS011;8788;49.930;8.660;2024-02-04T13:05:30;0.40;;;0.40;;
17340;SDS011;8788;49.930;8.660;2024-02-04T13:07:58;1.00;;;0.50;;
17340;SDS011;8788;49.930;8.660;2024-02-04T13:10:27;0.40;;;0.40;;
17340;SDS011;8788;49.930;8.660;2024-02-04T13:12:59;0.98;;;0.60;;
17340;SDS011;8788;49.930;8.660;2024-02-04T13:15:32;0.85;;;0.50;;
17340;SDS011;8788;49.930;8.660;2024-02-04T13:18:00;0.57;;;0.57;;
17340;SDS011;8788;49.930;8.660;2024-02-04T13:20:27;0.60;;;0.60;;
17340;SDS011;8788;49.930;8.660;2024-02-04T13:22:54;0.60;;;0.60;;
17340;SDS011;8788;49.930;8.660;2024-02-04T13:25:22;0.50;;;0.50;;
17340;SDS011;8788;49.930;8.660;2024-02-04T13:27:49;0.50;;;0.50;;
17340;SDS011;8788;49.930;8.660;2024-02-04T13:30:17;0.50;;;0.50;;
17340;SDS011;8788;49.930;8.660;2024-02-04T13:32:46;1.13;;;0.50;;
17340;SDS011;8788;49.930;8.660;2024-02-04T13:35:13;0.50;;;0.50;;
17340;SDS011;8788;49.930;8.660;2024-02-04T13:37:41;0.70;;;0.60;;
17340;SDS011;8788;49.930;8.660;2024-02-04T13:40:13;0.43;;;0.43;;
17340;SDS011;8788;49.930;8.660;2024-02-04T13:42:40;0.30;;;0.30;;
17340;SDS011;8788;49.930;8.660;2024-02-04T13:45:07;0.60;;;0.60;;
17340;SDS011;8788;49.930;8.660;2024-02-04T13:47:35;3.40;;;0.73;;
17340;SDS011;8788;49.930;8.660;2024-02-04T13:50:04;0.70;;;0.65;;
17340;SDS011;8788;49.930;8.660;2024-02-04T13:52:33;3.40;;;0.60;;
17340;SDS011;8788;49.930;8.660;2024-02-04T13:55:01;0.50;;;0.50;;
17340;SDS011;8788;49.930;8.660;2024-02-04T13:57:30;0.30;;;0.30;;
17340;SDS011;8788;49.930;8.660;2024-02-04T13:59:58;0.63;;;0.60;;
17340;SDS011;8788;49.930;8.660;2024-02-04T14:02:25;0.60;;;0.60;;
17340;SDS011;8788;49.930;8.660;2024-02-04T14:04:55;0.40;;;0.40;;
17340;SDS011;8788;49.930;8.660;2024-02-04T14:07:24;0.70;;;0.30;;
17340;SDS011;8788;49.930;8.660;2024-02-04T14:09:52;1.02;;;0.45;;
17340;SDS011;8788;49.930;8.660;2024-02-04T14:12:19;0.40;;;0.40;;
17340;SDS011;8788;49.930;8.660;2024-02-04T14:14:46;0.45;;;0.45;;
17340;SDS011;8788;49.930;8.660;2024-02-04T14:17:13;0.55;;;0.55;;
17340;SDS011;8788;49.930;8.660;2024-02-04T14:19:40;2.15;;;0.32;;
17340;SDS011;8788;49.930;8.660;2024-02-04T14:22:07;0.40;;;0.40;;
17340;SDS011;8788;49.930;8.660;2024-02-04T14:24:36;0.28;;;0.28;;
17340;SDS011;8788;49.930;8.660;2024-02-04T14:27:04;0.90;;;0.40;;
17340;SDS011;8788;49.930;8.660;2024-02-04T14:29:31;0.40;;;0.40;;
17340;SDS011;8788;49.930;8.660;2024-02-04T14:31:58;0.82;;;0.35;;
17340;SDS011;8788;49.930;8.660;2024-02-04T14:34:25;0.30;;;0.30;;
17340;SDS011;8788;49.930;8.660;2024-02-04T14:36:53;0.75;;;0.35;;
17340;SDS011;8788;49.930;8.660;2024-02-04T14:39:20;0.20;;;0.20;;
17340;SDS011;8788;49.930;8.660;2024-02-04T14:41:49;1.23;;;0.28;;
17340;SDS011;8788;49.930;8.660;2024-02-04T14:44:16;0.40;;;0.40;;
17340;SDS011;8788;49.930;8.660;2024-02-04T14:46:43;0.30;;;0.30;;
17340;SDS011;8788;49.930;8.660;2024-02-04T14:49:11;0.32;;;0.32;;
17340;SDS011;8788;49.930;8.660;2024-02-04T14:51:38;0.30;;;0.30;;
17340;SDS011;8788;49.930;8.660;2024-02-04T14:54:05;0.30;;;0.30;;
17340;SDS011;8788;49.930;8.660;2024-02-04T14:56:36;0.15;;;0.15;;
17340;SDS011;8788;49.930;8.660;2024-02-04T14:59:05;0.30;;;0.30;;
17340;SDS011;8788;49.930;8.660;2024-02-04T15:01:33;0.28;;;0.28;;
17340;SDS011;8788;49.930;8.660;2024-02-04T15:04:00;0.40;;;0.40;;
17340;SDS011;8788;49.930;8.660;2024-02-04T15:06:28;0.40;;;0.40;;